createdAt,value
2019-03-04T00:04:38.818Z,11.57
2019-03-04T00:07:07.203Z,11.71
2019-03-04T00:09:35.600Z,11.62
2019-03-04T00:12:03.985Z,11.64
2019-03-04T00:14:32.404Z,11.84
2019-03-04T00:17:01.032Z,11.77
2019-03-04T00:19:29.412Z,11.74
2019-03-04T00:21:57.803Z,11.58
2019-03-04T00:24:26.180Z,11.50
2019-03-04T00:26:54.580Z,11.44
2019-03-04T00:29:22.961Z,11.26
2019-03-04T00:31:51.656Z,11.11
2019-03-04T00:34:20.343Z,11.14
2019-03-04T00:36:48.721Z,11.07
2019-03-04T00:39:17.407Z,11.08
2019-03-04T00:42:05.127Z,10.98
2019-03-04T00:44:33.579Z,10.97
2019-03-04T00:47:02.201Z,10.98
2019-03-04T00:49:30.594Z,11.04
2019-03-04T00:51:59.268Z,11.10
2019-03-04T00:54:27.659Z,11.22
2019-03-04T00:56:56.329Z,11.19
2019-03-04T00:59:24.724Z,11.19
2019-03-04T01:01:53.400Z,11.24
2019-03-04T01:04:21.802Z,11.32
2019-03-04T01:06:50.185Z,11.31
2019-03-04T01:09:18.562Z,11.24
2019-03-04T01:11:47.219Z,11.30
2019-03-04T01:14:15.907Z,11.25
2019-03-04T01:16:44.591Z,11.27
2019-03-04T01:19:12.972Z,11.10
2019-03-04T01:21:41.361Z,11.04
2019-03-04T01:24:10.007Z,11.11
2019-03-04T01:26:38.388Z,11.01
2019-03-04T01:29:06.789Z,11.08
2019-03-04T01:31:35.400Z,11.14
2019-03-04T01:34:04.064Z,11.08
2019-03-04T01:36:32.749Z,11.18
2019-03-04T01:39:01.135Z,11.19
2019-03-04T01:41:29.814Z,11.19
2019-03-04T01:43:58.247Z,11.16
2019-03-04T01:46:26.891Z,11.24
2019-03-04T01:48:55.575Z,11.17
2019-03-04T01:51:24.246Z,11.31
2019-03-04T01:53:52.652Z,11.36
2019-03-04T01:56:21.255Z,11.42
2019-03-04T01:58:49.635Z,11.37
2019-03-04T02:01:18.025Z,11.42
2019-03-04T02:03:46.654Z,11.62
2019-03-04T02:06:15.338Z,11.63
2019-03-04T02:08:43.729Z,11.69
2019-03-04T02:11:52.047Z,11.66
2019-03-04T02:14:20.427Z,11.72
2019-03-04T02:16:49.099Z,11.62
2019-03-04T02:19:36.823Z,11.84
2019-03-04T02:22:05.519Z,11.83
2019-03-04T02:24:34.202Z,11.75
2019-03-04T02:27:22.248Z,11.70
2019-03-04T02:29:50.626Z,11.60
2019-03-04T02:32:19.307Z,11.44
2019-03-04T02:34:47.994Z,11.45
2019-03-04T02:37:35.716Z,11.34
2019-03-04T02:40:44.269Z,11.30
2019-03-04T02:43:12.942Z,11.25
2019-03-04T02:45:41.619Z,11.12
2019-03-04T02:48:10.302Z,11.21
2019-03-04T02:50:38.686Z,11.18
2019-03-04T02:53:07.367Z,11.18
2019-03-04T02:55:36.056Z,11.11
2019-03-04T02:58:04.857Z,11.08
2019-03-04T03:00:33.527Z,11.02
2019-03-04T03:03:01.913Z,10.80
2019-03-04T03:05:30.695Z,10.69
2019-03-04T03:07:59.081Z,10.61
2019-03-04T03:10:46.812Z,10.55
2019-03-04T03:13:15.195Z,10.33
2019-03-04T03:15:43.571Z,10.30
2019-03-04T03:18:11.962Z,10.10
2019-03-04T03:20:40.353Z,10.08
2019-03-04T03:23:09.009Z,10.19
2019-03-04T03:25:37.710Z,10.19
2019-03-04T03:28:06.090Z,9.85
2019-03-04T03:30:34.486Z,9.63
2019-03-04T03:33:02.905Z,9.43
2019-03-04T03:35:31.257Z,9.37
2019-03-04T03:37:59.894Z,9.37
2019-03-04T03:40:28.285Z,9.42
2019-03-04T03:42:56.656Z,9.40
2019-03-04T03:45:25.102Z,9.49
2019-03-04T03:47:53.831Z,9.73
2019-03-04T03:50:22.503Z,9.73
2019-03-04T03:52:50.873Z,9.89
2019-03-04T03:55:19.268Z,9.94
2019-03-04T03:57:47.638Z,9.92
2019-03-04T04:00:35.689Z,9.88
2019-03-04T04:03:04.306Z,10.02
2019-03-04T04:05:33.060Z,10.11
2019-03-04T04:08:20.784Z,10.20
2019-03-04T04:10:49.166Z,10.00
2019-03-04T04:13:17.543Z,10.08
2019-03-04T04:15:46.246Z,10.04
2019-03-04T04:18:14.622Z,10.05
2019-03-04T04:20:43.003Z,10.12
2019-03-04T04:23:11.694Z,10.21
2019-03-04T04:25:40.380Z,10.25
2019-03-04T04:30:44.383Z,9.90
2019-03-04T04:33:13.009Z,10.04
2019-03-04T04:35:41.656Z,10.07
2019-03-04T04:38:10.338Z,10.06
2019-03-04T04:40:38.971Z,9.86
2019-03-04T04:43:07.610Z,9.65
2019-03-04T04:45:35.985Z,9.70
2019-03-04T04:48:04.378Z,9.56
2019-03-04T04:51:12.928Z,9.59
2019-03-04T04:53:41.305Z,9.77
2019-03-04T04:56:09.952Z,9.96
2019-03-04T04:58:38.638Z,9.85
2019-03-04T05:01:07.017Z,9.82
2019-03-04T05:03:54.797Z,10.00
2019-03-04T05:06:23.178Z,10.06
2019-03-04T05:08:51.570Z,9.98
2019-03-04T05:11:19.955Z,9.91
2019-03-04T05:13:48.675Z,9.90
2019-03-04T05:16:17.064Z,9.95
2019-03-04T05:18:45.738Z,9.96
2019-03-04T05:21:14.122Z,9.99
2019-03-04T05:24:01.857Z,10.15
2019-03-04T05:26:30.642Z,10.06
2019-03-04T05:28:59.321Z,9.96
2019-03-04T05:31:28.019Z,9.95
2019-03-04T05:33:56.815Z,10.09
2019-03-04T05:36:25.481Z,9.88
2019-03-04T05:39:13.214Z,9.97
2019-03-04T05:41:41.907Z,9.87
2019-03-04T05:44:10.585Z,9.89
2019-03-04T05:46:38.967Z,9.91
2019-03-04T05:49:07.347Z,10.19
2019-03-04T05:51:35.739Z,10.46
2019-03-04T05:54:04.511Z,10.46
2019-03-04T05:56:33.206Z,10.54
2019-03-04T05:59:01.592Z,10.58
2019-03-04T06:02:09.906Z,10.48
2019-03-04T06:04:38.350Z,10.50
2019-03-04T06:07:25.805Z,10.54
2019-03-04T06:09:54.190Z,10.47
2019-03-04T06:12:41.936Z,10.49
2019-03-04T06:15:29.657Z,10.47
2019-03-04T06:17:58.052Z,10.45
2019-03-04T06:20:26.667Z,10.42
2019-03-04T06:22:55.064Z,10.32
2019-03-04T06:26:03.348Z,10.33
2019-03-04T06:28:32.087Z,10.41
2019-03-04T06:31:00.472Z,10.38
2019-03-04T06:33:29.165Z,10.44
2019-03-04T06:35:57.857Z,10.44
2019-03-04T06:38:26.241Z,10.49
2019-03-04T06:40:54.915Z,10.62
2019-03-04T06:43:23.587Z,10.72
2019-03-04T06:45:52.224Z,10.47
2019-03-04T06:48:20.614Z,10.58
2019-03-04T06:51:28.973Z,10.59
2019-03-04T06:54:37.558Z,10.72
2019-03-04T06:57:45.917Z,11.18
2019-03-04T07:00:54.267Z,11.57
2019-03-04T07:03:22.718Z,11.76
2019-03-04T07:05:51.490Z,11.87
2019-03-04T07:09:00.084Z,11.95
2019-03-04T07:11:28.462Z,11.97
2019-03-04T07:13:56.858Z,12.08
2019-03-04T07:16:25.292Z,12.16
2019-03-04T07:18:53.742Z,12.29
2019-03-04T07:21:22.190Z,12.24
2019-03-04T07:23:50.587Z,12.34
2019-03-04T07:26:19.006Z,12.47
2019-03-04T07:28:47.404Z,12.55
2019-03-04T07:31:15.826Z,12.66
2019-03-04T07:33:44.446Z,12.72
2019-03-04T07:36:12.965Z,12.73
2019-03-04T07:39:01.154Z,12.85
2019-03-04T07:41:29.602Z,12.98
2019-03-04T07:43:58.304Z,13.15
2019-03-04T07:46:26.781Z,13.36
2019-03-04T07:48:55.138Z,13.39
2019-03-04T07:54:32.000Z,13.82
2019-03-04T07:57:00.612Z,13.86
2019-03-04T07:59:29.330Z,13.93
2019-03-04T08:01:58.015Z,14.04
2019-03-04T08:04:26.705Z,14.05
2019-03-04T08:07:35.314Z,13.95
2019-03-04T08:10:42.300Z,13.87
2019-03-04T08:13:50.874Z,13.74
2019-03-04T08:16:19.515Z,13.64
2019-03-04T08:18:47.901Z,13.50
2019-03-04T08:21:16.580Z,13.44
2019-03-04T08:23:44.962Z,13.04
2019-03-04T08:26:53.506Z,12.24
2019-03-04T08:29:21.890Z,11.79
2019-03-04T08:31:50.274Z,11.48
2019-03-04T08:34:18.670Z,11.41
2019-03-04T08:36:47.046Z,11.39
2019-03-04T08:39:15.607Z,11.45
2019-03-04T08:41:44.041Z,11.15
2019-03-04T08:44:12.442Z,10.77
2019-03-04T08:46:40.827Z,10.06
2019-03-04T08:49:09.204Z,9.76
2019-03-04T08:51:37.598Z,9.65
2019-03-04T08:54:05.976Z,9.67
2019-03-04T08:56:34.368Z,9.79
2019-03-04T08:59:02.747Z,9.89
2019-03-04T09:01:31.469Z,9.91
2019-03-04T09:04:01.318Z,10.03
2019-03-04T09:06:29.995Z,10.25
2019-03-04T09:08:58.439Z,10.41
2019-03-04T09:11:46.514Z,10.52
2019-03-04T09:14:15.148Z,10.68
2019-03-04T09:16:43.785Z,10.85
2019-03-04T09:19:12.470Z,11.07
2019-03-04T09:21:41.159Z,11.12
2019-03-04T09:24:09.553Z,11.08
2019-03-04T09:26:37.943Z,11.11
2019-03-04T09:29:06.323Z,11.02
2019-03-04T09:31:34.758Z,11.01
2019-03-04T09:34:03.095Z,10.91
2019-03-04T09:36:31.740Z,10.98
2019-03-04T09:39:00.119Z,11.02
2019-03-04T09:44:27.138Z,11.13
2019-03-04T09:46:55.765Z,11.14
2019-03-04T09:49:24.156Z,11.26
2019-03-04T09:51:52.830Z,11.25
2019-03-04T09:54:21.518Z,11.40
2019-03-04T09:56:50.150Z,11.49
2019-03-04T09:59:18.540Z,11.66
2019-03-04T10:02:26.823Z,11.76
2019-03-04T10:05:35.180Z,11.78
2019-03-04T10:08:43.490Z,11.79
2019-03-04T10:11:52.010Z,11.81
2019-03-04T10:15:07.952Z,11.82
2019-03-04T10:18:07.915Z,11.83
2019-03-04T10:21:14.896Z,11.99
2019-03-04T10:24:22.106Z,11.84
2019-03-04T10:27:30.403Z,11.75
2019-03-04T10:30:37.628Z,11.94
2019-03-04T10:33:45.979Z,11.86
2019-03-04T10:36:54.279Z,11.72
2019-03-04T10:40:01.507Z,11.52
2019-03-04T10:43:08.474Z,11.47
2019-03-04T10:46:16.768Z,11.53
2019-03-04T10:48:45.442Z,11.46
2019-03-04T10:51:13.821Z,11.26
2019-03-04T10:53:42.214Z,11.23
2019-03-04T10:56:10.881Z,11.36
2019-03-04T10:58:39.571Z,11.39
2019-03-04T11:01:07.963Z,11.33
2019-03-04T11:03:36.634Z,11.20
2019-03-04T11:06:05.269Z,11.11
2019-03-04T11:08:33.649Z,11.03
2019-03-04T11:11:02.283Z,10.84
2019-03-04T11:13:30.675Z,10.87
2019-03-04T11:15:59.291Z,10.94
2019-03-04T11:18:27.929Z,10.97
2019-03-04T11:20:56.615Z,10.90
2019-03-04T11:26:01.055Z,11.04
2019-03-04T11:28:29.518Z,11.09
2019-03-04T11:30:57.902Z,11.07
2019-03-04T11:33:26.599Z,10.99
2019-03-04T11:35:54.990Z,10.85
2019-03-04T11:38:44.151Z,10.78
2019-03-04T11:41:32.183Z,10.73
2019-03-04T11:44:00.869Z,10.79
2019-03-04T11:46:29.587Z,10.95
2019-03-04T11:48:57.939Z,10.97
2019-03-04T11:51:26.335Z,10.99
2019-03-04T11:53:55.102Z,11.08
2019-03-04T11:56:23.553Z,11.06
2019-03-04T11:58:51.973Z,10.99
2019-03-04T12:04:09.579Z,11.07
2019-03-04T12:06:37.962Z,11.14
2019-03-04T12:09:46.261Z,11.09
2019-03-04T12:12:14.996Z,11.11
2019-03-04T12:14:43.675Z,10.87
2019-03-04T12:17:12.056Z,10.84
2019-03-04T12:19:40.788Z,10.81
2019-03-04T12:22:09.425Z,10.80
2019-03-04T12:24:38.046Z,10.70
2019-03-04T12:27:06.494Z,10.65
2019-03-04T12:29:35.115Z,10.74
2019-03-04T12:34:39.098Z,10.78
2019-03-04T12:37:07.550Z,10.84
2019-03-04T12:39:36.266Z,10.82
2019-03-04T12:42:04.718Z,10.79
2019-03-04T12:44:33.117Z,11.02
2019-03-04T12:47:01.495Z,11.08
2019-03-04T12:49:29.905Z,11.05
2019-03-04T12:51:58.571Z,11.20
2019-03-04T12:54:27.253Z,11.20
2019-03-04T12:56:55.943Z,11.15
2019-03-04T12:59:24.627Z,11.18
2019-03-04T13:01:53.023Z,11.02
2019-03-04T13:04:21.407Z,11.12
2019-03-04T13:06:49.794Z,11.35
2019-03-04T13:09:18.260Z,11.47
2019-03-04T13:11:46.934Z,11.45
2019-03-04T13:14:15.643Z,11.53
2019-03-04T13:16:44.040Z,11.68
2019-03-04T13:19:12.682Z,11.71
2019-03-04T13:21:41.065Z,11.81
2019-03-04T13:24:09.450Z,11.77
2019-03-04T13:26:38.138Z,11.96
2019-03-04T13:29:06.596Z,11.95
2019-03-04T13:31:35.293Z,12.00
2019-03-04T13:34:04.081Z,12.01
2019-03-04T13:36:32.474Z,12.03
2019-03-04T13:39:00.860Z,12.12
2019-03-04T13:41:29.529Z,12.21
2019-03-04T13:43:57.910Z,12.27
2019-03-04T13:46:26.297Z,12.34
2019-03-04T13:48:55.744Z,12.44
2019-03-04T13:51:25.143Z,12.53
2019-03-04T13:53:53.530Z,12.56
2019-03-04T13:56:21.913Z,12.55
2019-03-04T13:58:50.310Z,12.71
2019-03-04T14:01:38.379Z,12.82
2019-03-04T14:04:26.415Z,12.79
2019-03-04T14:06:54.796Z,12.87
2019-03-04T14:11:58.431Z,12.95
2019-03-04T14:14:27.085Z,12.92
2019-03-04T14:16:55.774Z,12.95
2019-03-04T14:19:24.458Z,13.03
2019-03-04T14:21:52.854Z,13.01
2019-03-04T14:24:21.241Z,13.02
2019-03-04T14:26:49.638Z,13.01
2019-03-04T14:29:18.021Z,13.01
2019-03-04T14:31:46.454Z,12.98
2019-03-04T14:34:14.845Z,12.93
2019-03-04T14:37:03.376Z,13.04
2019-03-04T14:39:32.691Z,13.10
2019-03-04T14:42:01.375Z,13.09
2019-03-04T14:44:49.346Z,12.97
2019-03-04T14:47:17.994Z,12.94
2019-03-04T14:49:46.380Z,12.92
2019-03-04T14:52:14.837Z,12.99
2019-03-04T14:54:43.218Z,12.95
2019-03-04T14:57:11.608Z,12.97
2019-03-04T14:59:40.234Z,13.04
2019-03-04T15:02:08.988Z,13.05
2019-03-04T15:04:37.372Z,12.98
2019-03-04T15:07:05.755Z,12.81
2019-03-04T15:09:34.147Z,12.65
2019-03-04T15:12:02.585Z,12.42
2019-03-04T15:14:30.972Z,12.30
2019-03-04T15:17:03.345Z,12.12
2019-03-04T15:19:29.475Z,12.04
2019-03-04T15:22:05.061Z,11.83
2019-03-04T15:24:33.690Z,11.80
2019-03-04T15:27:02.137Z,11.81
2019-03-04T15:29:30.771Z,11.72
2019-03-04T15:31:59.461Z,11.59
2019-03-04T15:34:27.843Z,11.53
2019-03-04T15:36:56.247Z,11.41
2019-03-04T15:39:24.906Z,11.36
2019-03-04T15:41:53.307Z,11.19
2019-03-04T15:44:21.679Z,10.68
2019-03-04T15:46:50.352Z,9.53
2019-03-04T15:49:19.035Z,8.96
2019-03-04T15:51:47.555Z,8.30
2019-03-04T15:54:16.203Z,7.85
2019-03-04T15:56:44.587Z,7.51
2019-03-04T15:59:13.374Z,7.32
2019-03-04T16:01:42.159Z,7.19
2019-03-04T16:04:10.637Z,7.07
2019-03-04T16:06:39.325Z,6.88
2019-03-04T16:09:47.632Z,6.95
2019-03-04T16:12:16.159Z,6.93
2019-03-04T16:14:44.702Z,6.89
2019-03-04T16:17:13.098Z,6.85
2019-03-04T16:19:41.770Z,6.83
2019-03-04T16:22:10.455Z,6.81
2019-03-04T16:24:38.845Z,6.76
2019-03-04T16:27:47.170Z,6.71
2019-03-04T16:30:55.487Z,6.74
2019-03-04T16:34:03.788Z,6.72
2019-03-04T16:36:32.191Z,6.70
2019-03-04T16:39:00.586Z,6.71
2019-03-04T16:41:29.328Z,6.62
2019-03-04T16:43:57.706Z,6.64
2019-03-04T16:46:26.489Z,6.56
2019-03-04T16:48:55.127Z,6.57
2019-03-04T16:51:23.765Z,6.49
2019-03-04T16:53:52.446Z,6.48
2019-03-04T16:56:20.832Z,6.55
2019-03-04T16:58:49.234Z,6.55
2019-03-04T17:04:25.966Z,6.55
2019-03-04T17:06:54.353Z,6.56
2019-03-04T17:09:22.830Z,6.53
2019-03-04T17:11:51.237Z,6.53
2019-03-04T17:14:19.926Z,6.46
2019-03-04T17:16:48.329Z,6.34
2019-03-04T17:19:16.716Z,6.31
2019-03-04T17:21:45.115Z,6.33
2019-03-04T17:24:13.560Z,6.35
2019-03-04T17:27:01.296Z,6.26
2019-03-04T17:29:29.963Z,6.37
2019-03-04T17:31:58.764Z,6.36
2019-03-04T17:34:27.440Z,6.36
2019-03-04T17:36:55.831Z,6.36
2019-03-04T17:39:24.304Z,6.39
2019-03-04T17:45:01.097Z,6.31
2019-03-04T17:47:29.482Z,6.31
2019-03-04T17:49:57.879Z,6.29
2019-03-04T17:52:26.271Z,6.24
2019-03-04T17:54:54.922Z,6.24
2019-03-04T17:57:23.600Z,6.24
2019-03-04T18:00:31.951Z,6.21
2019-03-04T18:03:00.420Z,6.24
2019-03-04T18:05:29.082Z,6.19
2019-03-04T18:07:57.766Z,6.15
2019-03-04T18:10:26.241Z,6.15
2019-03-04T18:13:34.553Z,6.13
2019-03-04T18:16:02.948Z,6.16
2019-03-04T18:18:31.625Z,6.15
2019-03-04T18:21:00.026Z,6.09
2019-03-04T18:23:28.414Z,5.98
2019-03-04T18:26:36.964Z,5.95
2019-03-04T18:29:45.266Z,5.89
2019-03-04T18:32:52.307Z,5.83
2019-03-04T18:36:00.903Z,5.78
2019-03-04T18:39:09.457Z,5.76
2019-03-04T18:42:16.695Z,5.72
2019-03-04T18:45:23.667Z,5.70
2019-03-04T18:48:32.275Z,5.66
2019-03-04T18:51:00.663Z,5.67
2019-03-04T18:53:29.069Z,5.68
2019-03-04T18:55:57.791Z,5.69
2019-03-04T18:58:26.473Z,5.71
2019-03-04T19:00:55.265Z,5.77
2019-03-04T19:03:23.964Z,5.78
2019-03-04T19:05:52.442Z,5.87
2019-03-04T19:08:21.129Z,5.83
2019-03-04T19:10:49.519Z,5.82
2019-03-04T19:13:18.181Z,5.86
2019-03-04T19:15:46.909Z,5.88
2019-03-04T19:18:15.431Z,5.82
2019-03-04T19:20:43.763Z,5.90
2019-03-04T19:23:12.162Z,5.88
2019-03-04T19:25:40.894Z,5.88
2019-03-04T19:28:21.815Z,5.86
2019-03-04T19:30:50.554Z,5.90
2019-03-04T19:33:18.958Z,5.91
2019-03-04T19:35:47.352Z,5.92
2019-03-04T19:38:35.334Z,5.93
2019-03-04T19:44:11.874Z,5.94
2019-03-04T19:46:40.526Z,6.00
2019-03-04T19:49:09.219Z,6.01
2019-03-04T19:51:38.002Z,5.92
2019-03-04T19:57:14.811Z,5.87
2019-03-04T19:59:43.200Z,5.82
2019-03-04T20:02:11.623Z,5.77
2019-03-04T20:04:40.014Z,5.70
2019-03-04T20:07:48.330Z,5.68
2019-03-04T20:10:56.611Z,5.66
2019-03-04T20:13:25.319Z,5.58
2019-03-04T20:15:54.038Z,5.55
2019-03-04T20:18:22.721Z,5.48
2019-03-04T20:20:51.125Z,5.52
2019-03-04T20:23:19.786Z,5.35
2019-03-04T20:25:48.189Z,5.31
2019-03-04T20:28:16.854Z,5.31
2019-03-04T20:30:45.249Z,5.28
2019-03-04T20:33:13.913Z,5.15
2019-03-04T20:35:42.558Z,5.17
2019-03-04T20:38:50.913Z,5.06
2019-03-04T20:41:19.310Z,5.07
2019-03-04T20:43:47.699Z,5.06
2019-03-04T20:46:16.148Z,5.03
2019-03-04T20:48:44.843Z,5.00
2019-03-04T20:51:13.395Z,5.02
2019-03-04T20:53:42.023Z,4.98
2019-03-04T20:56:10.798Z,4.89
2019-03-04T20:58:39.201Z,4.90
2019-03-04T21:01:08.068Z,4.93
2019-03-04T21:03:38.545Z,4.89
2019-03-04T21:06:07.078Z,4.94
2019-03-04T21:08:35.763Z,4.90
2019-03-04T21:11:44.309Z,4.93
2019-03-04T21:14:12.805Z,4.93
2019-03-04T21:16:41.447Z,4.92
2019-03-04T21:19:09.832Z,4.95
2019-03-04T21:21:38.615Z,4.96
2019-03-04T21:24:07.151Z,4.92
2019-03-04T21:26:35.775Z,4.89
2019-03-04T21:29:44.151Z,4.88
2019-03-04T21:32:52.703Z,4.93
2019-03-04T21:35:59.931Z,4.98
2019-03-04T21:38:28.718Z,5.01
2019-03-04T21:41:36.994Z,4.99
2019-03-04T21:44:44.220Z,4.99
2019-03-04T21:47:51.191Z,5.00
2019-03-04T21:50:59.555Z,4.97
2019-03-04T21:53:48.451Z,5.05
2019-03-04T21:56:55.697Z,5.14
2019-03-04T21:59:24.335Z,5.18
2019-03-04T22:02:13.815Z,5.22
2019-03-04T22:04:42.701Z,5.18
2019-03-04T22:07:31.715Z,5.14
2019-03-04T22:10:00.607Z,5.21
2019-03-04T22:12:29.098Z,5.24
2019-03-04T22:14:57.576Z,5.20
2019-03-04T22:17:26.010Z,5.20
2019-03-04T22:19:54.698Z,5.10
2019-03-04T22:22:23.337Z,5.14
2019-03-04T22:24:52.054Z,5.14
2019-03-04T22:27:20.451Z,5.04
2019-03-04T22:29:48.838Z,5.10
2019-03-04T22:32:17.367Z,5.02
2019-03-04T22:34:46.081Z,5.07
2019-03-04T22:37:14.471Z,5.03
2019-03-04T22:40:02.221Z,5.11
2019-03-04T22:42:30.905Z,5.08
2019-03-04T22:44:59.285Z,5.07
2019-03-04T22:47:27.954Z,5.19
2019-03-04T22:49:56.344Z,5.27
2019-03-04T22:52:25.007Z,5.25
2019-03-04T22:54:53.693Z,5.33
2019-03-04T22:57:22.090Z,5.29
2019-03-04T22:59:50.523Z,5.24
2019-03-04T23:02:59.046Z,5.20
2019-03-04T23:05:27.424Z,5.16
2019-03-04T23:07:55.810Z,5.11
2019-03-04T23:10:24.216Z,5.08
2019-03-04T23:13:32.775Z,5.07
2019-03-04T23:16:41.310Z,5.03
2019-03-04T23:19:09.700Z,5.03
2019-03-04T23:21:38.244Z,5.05
2019-03-04T23:24:06.566Z,5.01
2019-03-04T23:26:34.971Z,4.96
2019-03-04T23:29:03.363Z,4.79
2019-03-04T23:31:32.035Z,4.85
2019-03-04T23:34:00.723Z,4.76
2019-03-04T23:36:29.403Z,4.82
2019-03-04T23:38:58.090Z,4.83
2019-03-04T23:41:26.795Z,4.84
2019-03-04T23:43:55.195Z,4.75
2019-03-04T23:46:23.582Z,4.86
2019-03-04T23:48:52.326Z,4.92
2019-03-04T23:51:20.718Z,4.99
2019-03-04T23:53:49.123Z,4.76
2019-03-04T23:56:17.585Z,4.69
2019-03-04T23:58:45.969Z,4.63
